createdAt,value
2023-06-29T00:01:00.854Z,55.90
2023-06-29T00:16:02.471Z,55.90
2023-06-29T00:31:04.051Z,55.80
2023-06-29T00:46:05.613Z,55.90
2023-06-29T01:01:07.213Z,56.00
2023-06-29T01:16:08.889Z,55.90
2023-06-29T01:31:10.435Z,55.90
2023-06-29T01:46:11.990Z,55.90
2023-06-29T02:01:13.542Z,55.90
2023-06-29T02:16:15.150Z,55.90
2023-06-29T02:31:16.715Z,55.90
2023-06-29T02:46:18.294Z,55.80
2023-06-29T03:01:19.842Z,55.80
2023-06-29T03:16:21.367Z,55.80
2023-06-29T03:31:22.922Z,55.90
2023-06-29T03:46:24.510Z,55.90
2023-06-29T04:01:26.058Z,55.90
2023-06-29T04:16:27.694Z,55.90
2023-06-29T04:31:29.274Z,55.80
2023-06-29T04:46:30.794Z,55.90
2023-06-29T05:01:32.358Z,55.80
2023-06-29T05:16:35.012Z,55.80
2023-06-29T05:31:36.560Z,55.70
2023-06-29T05:46:38.102Z,55.80
2023-06-29T06:01:39.869Z,55.70
2023-06-29T06:16:41.525Z,55.70
2023-06-29T06:31:43.074Z,55.70
2023-06-29T06:46:44.787Z,55.80
2023-06-29T07:01:46.338Z,55.80
2023-06-29T07:16:47.976Z,56.00
2023-06-29T07:31:49.474Z,56.10
2023-06-29T07:46:50.985Z,56.10
2023-06-29T08:01:52.544Z,56.20
2023-06-29T08:16:54.128Z,56.20
2023-06-29T08:31:55.755Z,56.30
2023-06-29T08:46:57.287Z,56.00
2023-06-29T09:01:58.932Z,55.80
2023-06-29T09:17:00.453Z,55.70
2023-06-29T09:32:02.026Z,55.50
2023-06-29T10:02:08.005Z,55.00
2023-06-29T10:17:10.424Z,55.00
2023-06-29T10:32:13.423Z,55.10
2023-06-29T10:47:15.074Z,55.30
2023-06-29T11:02:16.672Z,55.40
2023-06-29T11:17:18.305Z,55.50
2023-06-29T11:32:19.839Z,55.50
2023-06-29T11:47:32.756Z,55.30
2023-06-29T12:02:35.337Z,55.30
2023-06-29T12:32:41.312Z,55.30
2023-06-29T12:47:43.005Z,55.30
2023-06-29T13:02:44.758Z,55.20
2023-06-29T13:17:46.449Z,55.30
2023-06-29T13:32:48.015Z,55.20
2023-06-29T13:47:49.615Z,55.30
2023-06-29T14:02:53.413Z,55.50
2023-06-29T14:17:55.256Z,55.50
2023-06-29T14:32:56.895Z,55.50
2023-06-29T14:47:58.493Z,55.50
2023-06-29T15:03:00.184Z,55.50
2023-06-29T15:18:01.888Z,55.50
2023-06-29T15:33:03.547Z,55.70
2023-06-29T15:48:05.271Z,56.00
2023-06-29T16:03:06.998Z,56.10
2023-06-29T16:18:08.533Z,56.20
2023-06-29T16:33:10.158Z,56.10
2023-06-29T16:48:11.787Z,56.00
2023-06-29T17:03:13.424Z,55.70
2023-06-29T17:18:15.053Z,55.70
2023-06-29T17:33:16.581Z,55.50
2023-06-29T17:48:18.076Z,55.40
2023-06-29T18:03:19.665Z,55.40
2023-06-29T18:18:21.285Z,55.40
2023-06-29T18:33:22.810Z,55.30
2023-06-29T18:48:24.321Z,55.40
2023-06-29T19:03:26.043Z,55.60
2023-06-29T19:18:27.676Z,55.80
2023-06-29T19:33:29.217Z,56.00
2023-06-29T19:48:30.712Z,56.00
2023-06-29T20:03:32.402Z,56.60
2023-06-29T20:18:34.009Z,56.20
2023-06-29T20:33:35.524Z,56.20
2023-06-29T20:48:37.044Z,56.30
2023-06-29T21:03:38.651Z,56.40
2023-06-29T21:18:40.219Z,56.50
2023-06-29T21:33:41.719Z,56.60
2023-06-29T21:48:43.278Z,56.60
2023-06-29T22:03:44.926Z,56.60
2023-06-29T22:18:46.479Z,56.70
2023-06-29T22:33:48.046Z,56.70
2023-06-29T22:48:49.557Z,56.70
2023-06-29T23:03:51.121Z,56.70
2023-06-29T23:18:52.677Z,56.70
2023-06-29T23:33:54.373Z,56.70
2023-06-29T23:48:55.913Z,56.70
